sensor_id;sensor_type;location;lat;lon;timestamp;P1;durP1;ratioP1;P2;durP2;ratioP2
3052;SDS011;1536;51.098;6.414;2022-12-18T00:01:56;23.10;;;15.88;;
3052;SDS011;1536;51.098;6.414;2022-12-18T00:04:24;32.05;;;18.90;;
3052;SDS011;1536;51.098;6.414;2022-12-18T00:06:52;25.40;;;16.90;;
3052;SDS011;1536;51.098;6.414;2022-12-18T00:09:19;30.55;;;18.00;;
3052;SDS011;1536;51.098;6.414;2022-12-18T00:11:47;28.23;;;17.95;;
3052;SDS011;1536;51.098;6.414;2022-12-18T00:14:14;32.28;;;17.02;;
3052;SDS011;1536;51.098;6.414;2022-12-18T00:16:43;22.55;;;16.65;;
3052;SDS011;1536;51.098;6.414;2022-12-18T00:19:10;21.60;;;16.20;;
3052;SDS011;1536;51.098;6.414;2022-12-18T00:21:38;25.75;;;17.20;;
3052;SDS011;1536;51.098;6.414;2022-12-18T00:24:04;27.50;;;17.98;;
3052;SDS011;1536;51.098;6.414;2022-12-18T00:26:33;24.45;;;17.13;;
3052;SDS011;1536;51.098;6.414;2022-12-18T00:29:04;25.10;;;18.90;;
3052;SDS011;1536;51.098;6.414;2022-12-18T00:31:32;25.05;;;16.98;;
3052;SDS011;1536;51.098;6.414;2022-12-18T00:33:59;22.48;;;16.85;;
3052;SDS011;1536;51.098;6.414;2022-12-18T00:36:27;20.90;;;15.25;;
3052;SDS011;1536;51.098;6.414;2022-12-18T00:38:55;23.95;;;13.77;;
3052;SDS011;1536;51.098;6.414;2022-12-18T00:41:23;27.02;;;16.20;;
3052;SDS011;1536;51.098;6.414;2022-12-18T00:44:18;23.02;;;14.90;;
3052;SDS011;1536;51.098;6.414;2022-12-18T00:46:46;22.52;;;15.75;;
3052;SDS011;1536;51.098;6.414;2022-12-18T00:49:13;24.85;;;14.93;;
3052;SDS011;1536;51.098;6.414;2022-12-18T00:51:41;21.83;;;16.63;;
3052;SDS011;1536;51.098;6.414;2022-12-18T00:54:07;23.85;;;16.05;;
3052;SDS011;1536;51.098;6.414;2022-12-18T00:56:35;21.42;;;15.32;;
3052;SDS011;1536;51.098;6.414;2022-12-18T00:59:03;21.70;;;16.00;;
3052;SDS011;1536;51.098;6.414;2022-12-18T01:01:31;22.67;;;15.32;;
3052;SDS011;1536;51.098;6.414;2022-12-18T01:03:59;23.25;;;14.75;;
3052;SDS011;1536;51.098;6.414;2022-12-18T01:06:26;20.85;;;14.82;;
3052;SDS011;1536;51.098;6.414;2022-12-18T01:08:52;22.48;;;14.43;;
3052;SDS011;1536;51.098;6.414;2022-12-18T01:11:19;21.38;;;14.25;;
3052;SDS011;1536;51.098;6.414;2022-12-18T01:13:47;20.55;;;14.65;;
3052;SDS011;1536;51.098;6.414;2022-12-18T01:16:14;21.58;;;14.68;;
3052;SDS011;1536;51.098;6.414;2022-12-18T01:18:44;25.42;;;13.85;;
3052;SDS011;1536;51.098;6.414;2022-12-18T01:21:11;20.30;;;13.63;;
3052;SDS011;1536;51.098;6.414;2022-12-18T01:23:40;20.50;;;14.55;;
3052;SDS011;1536;51.098;6.414;2022-12-18T01:26:07;20.77;;;13.68;;
3052;SDS011;1536;51.098;6.414;2022-12-18T01:28:34;24.02;;;15.45;;
3052;SDS011;1536;51.098;6.414;2022-12-18T01:31:11;20.83;;;14.40;;
3052;SDS011;1536;51.098;6.414;2022-12-18T01:33:39;26.42;;;15.65;;
3052;SDS011;1536;51.098;6.414;2022-12-18T01:36:07;17.50;;;13.48;;
3052;SDS011;1536;51.098;6.414;2022-12-18T01:38:39;17.63;;;14.05;;
3052;SDS011;1536;51.098;6.414;2022-12-18T01:41:07;20.95;;;13.95;;
3052;SDS011;1536;51.098;6.414;2022-12-18T01:43:45;21.55;;;13.52;;
3052;SDS011;1536;51.098;6.414;2022-12-18T01:46:14;25.45;;;14.45;;
3052;SDS011;1536;51.098;6.414;2022-12-18T01:48:42;16.92;;;13.43;;
3052;SDS011;1536;51.098;6.414;2022-12-18T01:51:12;21.25;;;14.68;;
3052;SDS011;1536;51.098;6.414;2022-12-18T01:53:39;25.85;;;15.40;;
3052;SDS011;1536;51.098;6.414;2022-12-18T01:56:08;23.60;;;14.65;;
3052;SDS011;1536;51.098;6.414;2022-12-18T01:58:39;21.05;;;14.65;;
3052;SDS011;1536;51.098;6.414;2022-12-18T02:01:11;22.48;;;14.20;;
3052;SDS011;1536;51.098;6.414;2022-12-18T02:03:40;19.55;;;13.48;;
3052;SDS011;1536;51.098;6.414;2022-12-18T02:06:08;26.83;;;15.07;;
3052;SDS011;1536;51.098;6.414;2022-12-18T02:08:41;23.30;;;13.80;;
3052;SDS011;1536;51.098;6.414;2022-12-18T02:11:15;20.98;;;15.30;;
3052;SDS011;1536;51.098;6.414;2022-12-18T02:13:47;26.85;;;15.35;;
3052;SDS011;1536;51.098;6.414;2022-12-18T02:16:24;26.58;;;15.73;;
3052;SDS011;1536;51.098;6.414;2022-12-18T02:18:56;18.75;;;14.15;;
3052;SDS011;1536;51.098;6.414;2022-12-18T02:21:30;21.70;;;14.02;;
3052;SDS011;1536;51.098;6.414;2022-12-18T02:24:13;21.63;;;14.55;;
3052;SDS011;1536;51.098;6.414;2022-12-18T02:26:50;21.42;;;14.07;;
3052;SDS011;1536;51.098;6.414;2022-12-18T02:29:21;20.60;;;13.27;;
3052;SDS011;1536;51.098;6.414;2022-12-18T02:31:52;22.65;;;15.15;;
3052;SDS011;1536;51.098;6.414;2022-12-18T02:34:29;18.42;;;14.43;;
3052;SDS011;1536;51.098;6.414;2022-12-18T02:36:59;23.55;;;14.68;;
3052;SDS011;1536;51.098;6.414;2022-12-18T02:39:30;22.88;;;13.48;;
3052;SDS011;1536;51.098;6.414;2022-12-18T02:42:00;21.23;;;13.65;;
3052;SDS011;1536;51.098;6.414;2022-12-18T02:44:32;23.00;;;14.32;;
3052;SDS011;1536;51.098;6.414;2022-12-18T02:46:59;19.98;;;13.00;;
3052;SDS011;1536;51.098;6.414;2022-12-18T02:49:28;18.35;;;13.27;;
3052;SDS011;1536;51.098;6.414;2022-12-18T02:52:03;17.33;;;13.00;;
3052;SDS011;1536;51.098;6.414;2022-12-18T02:54:37;19.20;;;12.63;;
3052;SDS011;1536;51.098;6.414;2022-12-18T02:57:19;23.13;;;13.90;;
3052;SDS011;1536;51.098;6.414;2022-12-18T02:59:54;17.48;;;14.05;;
3052;SDS011;1536;51.098;6.414;2022-12-18T03:02:29;22.88;;;14.60;;
3052;SDS011;1536;51.098;6.414;2022-12-18T03:05:05;23.02;;;13.98;;
3052;SDS011;1536;51.098;6.414;2022-12-18T03:07:39;19.17;;;14.85;;
3052;SDS011;1536;51.098;6.414;2022-12-18T03:10:11;22.00;;;14.75;;
3052;SDS011;1536;51.098;6.414;2022-12-18T03:12:44;32.55;;;15.40;;
3052;SDS011;1536;51.098;6.414;2022-12-18T03:15:16;20.45;;;13.20;;
3052;SDS011;1536;51.098;6.414;2022-12-18T03:17:48;23.55;;;15.00;;
3052;SDS011;1536;51.098;6.414;2022-12-18T03:20:19;20.95;;;14.77;;
3052;SDS011;1536;51.098;6.414;2022-12-18T03:22:49;22.17;;;14.55;;
3052;SDS011;1536;51.098;6.414;2022-12-18T03:25:18;17.92;;;13.90;;
3052;SDS011;1536;51.098;6.414;2022-12-18T03:27:48;20.58;;;15.77;;
3052;SDS011;1536;51.098;6.414;2022-12-18T03:30:17;23.70;;;16.23;;
3052;SDS011;1536;51.098;6.414;2022-12-18T03:32:46;24.45;;;16.60;;
3052;SDS011;1536;51.098;6.414;2022-12-18T03:35:16;21.25;;;14.60;;
3052;SDS011;1536;51.098;6.414;2022-12-18T03:37:47;17.48;;;13.23;;
3052;SDS011;1536;51.098;6.414;2022-12-18T03:40:14;24.95;;;15.35;;
3052;SDS011;1536;51.098;6.414;2022-12-18T03:42:43;22.15;;;15.20;;
3052;SDS011;1536;51.098;6.414;2022-12-18T03:45:18;18.30;;;14.15;;
3052;SDS011;1536;51.098;6.414;2022-12-18T03:47:50;20.23;;;15.15;;
3052;SDS011;1536;51.098;6.414;2022-12-18T03:50:26;19.77;;;14.50;;
3052;SDS011;1536;51.098;6.414;2022-12-18T03:53:04;20.95;;;14.88;;
3052;SDS011;1536;51.098;6.414;2022-12-18T03:55:39;25.02;;;16.55;;
3052;SDS011;1536;51.098;6.414;2022-12-18T03:58:08;20.42;;;13.50;;
3052;SDS011;1536;51.098;6.414;2022-12-18T04:00:39;20.58;;;14.93;;
3052;SDS011;1536;51.098;6.414;2022-12-18T04:03:06;22.00;;;15.73;;
3052;SDS011;1536;51.098;6.414;2022-12-18T04:05:35;19.15;;;14.52;;
3052;SDS011;1536;51.098;6.414;2022-12-18T04:08:03;26.98;;;15.75;;
3052;SDS011;1536;51.098;6.414;2022-12-18T04:10:31;22.15;;;16.05;;
3052;SDS011;1536;51.098;6.414;2022-12-18T04:12:58;18.52;;;14.30;;
3052;SDS011;1536;51.098;6.414;2022-12-18T04:15:26;25.23;;;14.07;;
3052;SDS011;1536;51.098;6.414;2022-12-18T04:17:53;26.75;;;16.83;;
3052;SDS011;1536;51.098;6.414;2022-12-18T04:20:19;18.95;;;15.80;;
3052;SDS011;1536;51.098;6.414;2022-12-18T04:22:46;22.65;;;15.73;;
3052;SDS011;1536;51.098;6.414;2022-12-18T04:25:13;21.92;;;14.65;;
3052;SDS011;1536;51.098;6.414;2022-12-18T04:27:40;22.15;;;14.98;;
3052;SDS011;1536;51.098;6.414;2022-12-18T04:30:06;22.02;;;15.00;;
3052;SDS011;1536;51.098;6.414;2022-12-18T04:32:35;22.20;;;15.07;;
3052;SDS011;1536;51.098;6.414;2022-12-18T04:35:02;20.13;;;15.68;;
3052;SDS011;1536;51.098;6.414;2022-12-18T04:37:31;21.23;;;15.63;;
3052;SDS011;1536;51.098;6.414;2022-12-18T04:39:58;23.17;;;16.08;;
3052;SDS011;1536;51.098;6.414;2022-12-18T04:42:25;29.27;;;16.33;;
3052;SDS011;1536;51.098;6.414;2022-12-18T04:44:51;23.73;;;15.77;;
3052;SDS011;1536;51.098;6.414;2022-12-18T04:47:18;23.70;;;15.48;;
3052;SDS011;1536;51.098;6.414;2022-12-18T04:49:46;21.63;;;13.90;;
3052;SDS011;1536;51.098;6.414;2022-12-18T04:52:13;25.20;;;16.67;;
3052;SDS011;1536;51.098;6.414;2022-12-18T04:54:39;23.17;;;15.07;;
3052;SDS011;1536;51.098;6.414;2022-12-18T04:57:06;23.98;;;13.77;;
3052;SDS011;1536;51.098;6.414;2022-12-18T04:59:33;25.58;;;14.32;;
3052;SDS011;1536;51.098;6.414;2022-12-18T05:01:59;24.70;;;15.07;;
3052;SDS011;1536;51.098;6.414;2022-12-18T05:04:26;27.77;;;14.15;;
3052;SDS011;1536;51.098;6.414;2022-12-18T05:06:54;21.83;;;15.13;;
3052;SDS011;1536;51.098;6.414;2022-12-18T05:09:21;21.95;;;15.07;;
3052;SDS011;1536;51.098;6.414;2022-12-18T05:11:47;24.08;;;15.32;;
3052;SDS011;1536;51.098;6.414;2022-12-18T05:14:14;18.70;;;13.15;;
3052;SDS011;1536;51.098;6.414;2022-12-18T05:16:41;18.92;;;15.73;;
3052;SDS011;1536;51.098;6.414;2022-12-18T05:19:08;23.17;;;14.02;;
3052;SDS011;1536;51.098;6.414;2022-12-18T05:21:34;20.83;;;14.85;;
3052;SDS011;1536;51.098;6.414;2022-12-18T05:24:03;25.30;;;15.23;;
3052;SDS011;1536;51.098;6.414;2022-12-18T05:26:30;22.70;;;14.95;;
3052;SDS011;1536;51.098;6.414;2022-12-18T05:28:58;21.13;;;13.35;;
3052;SDS011;1536;51.098;6.414;2022-12-18T05:31:24;21.33;;;14.52;;
3052;SDS011;1536;51.098;6.414;2022-12-18T05:33:51;19.60;;;15.05;;
3052;SDS011;1536;51.098;6.414;2022-12-18T05:36:19;23.48;;;16.17;;
3052;SDS011;1536;51.098;6.414;2022-12-18T05:38:45;22.40;;;15.43;;
3052;SDS011;1536;51.098;6.414;2022-12-18T05:41:13;18.50;;;14.98;;
3052;SDS011;1536;51.098;6.414;2022-12-18T05:43:40;19.50;;;15.85;;
3052;SDS011;1536;51.098;6.414;2022-12-18T05:46:07;27.33;;;15.13;;
3052;SDS011;1536;51.098;6.414;2022-12-18T05:48:37;20.90;;;14.73;;
3052;SDS011;1536;51.098;6.414;2022-12-18T05:51:05;20.02;;;12.93;;
3052;SDS011;1536;51.098;6.414;2022-12-18T05:53:33;20.60;;;14.80;;
3052;SDS011;1536;51.098;6.414;2022-12-18T05:56:00;20.83;;;14.60;;
3052;SDS011;1536;51.098;6.414;2022-12-18T05:58:29;20.15;;;15.15;;
3052;SDS011;1536;51.098;6.414;2022-12-18T06:00:56;16.13;;;13.35;;
3052;SDS011;1536;51.098;6.414;2022-12-18T06:03:23;20.15;;;14.13;;
3052;SDS011;1536;51.098;6.414;2022-12-18T06:05:50;27.42;;;16.20;;
3052;SDS011;1536;51.098;6.414;2022-12-18T06:08:16;24.92;;;15.73;;
3052;SDS011;1536;51.098;6.414;2022-12-18T06:10:48;18.88;;;14.02;;
3052;SDS011;1536;51.098;6.414;2022-12-18T06:13:16;23.20;;;15.07;;
3052;SDS011;1536;51.098;6.414;2022-12-18T06:15:44;25.20;;;16.30;;
3052;SDS011;1536;51.098;6.414;2022-12-18T06:18:11;24.10;;;16.33;;
3052;SDS011;1536;51.098;6.414;2022-12-18T06:20:37;19.90;;;14.73;;
3052;SDS011;1536;51.098;6.414;2022-12-18T06:23:04;21.70;;;15.75;;
3052;SDS011;1536;51.098;6.414;2022-12-18T06:25:31;22.30;;;15.25;;
3052;SDS011;1536;51.098;6.414;2022-12-18T06:27:58;19.58;;;14.43;;
3052;SDS011;1536;51.098;6.414;2022-12-18T06:30:25;23.88;;;15.38;;
3052;SDS011;1536;51.098;6.414;2022-12-18T06:32:53;22.00;;;15.13;;
3052;SDS011;1536;51.098;6.414;2022-12-18T06:35:19;17.80;;;14.32;;
3052;SDS011;1536;51.098;6.414;2022-12-18T06:37:46;22.65;;;17.13;;
3052;SDS011;1536;51.098;6.414;2022-12-18T06:40:13;20.27;;;14.88;;
3052;SDS011;1536;51.098;6.414;2022-12-18T06:42:39;21.08;;;15.35;;
3052;SDS011;1536;51.098;6.414;2022-12-18T06:45:06;19.60;;;14.32;;
3052;SDS011;1536;51.098;6.414;2022-12-18T06:47:34;23.20;;;15.65;;
3052;SDS011;1536;51.098;6.414;2022-12-18T06:50:02;24.60;;;15.73;;
3052;SDS011;1536;51.098;6.414;2022-12-18T06:52:31;19.33;;;14.68;;
3052;SDS011;1536;51.098;6.414;2022-12-18T06:54:57;23.50;;;16.10;;
3052;SDS011;1536;51.098;6.414;2022-12-18T06:57:24;23.42;;;16.02;;
3052;SDS011;1536;51.098;6.414;2022-12-18T06:59:51;21.63;;;15.75;;
3052;SDS011;1536;51.098;6.414;2022-12-18T07:02:17;22.30;;;14.55;;
3052;SDS011;1536;51.098;6.414;2022-12-18T07:04:44;24.20;;;15.32;;
3052;SDS011;1536;51.098;6.414;2022-12-18T07:07:12;26.17;;;16.88;;
3052;SDS011;1536;51.098;6.414;2022-12-18T07:09:39;21.95;;;15.20;;
3052;SDS011;1536;51.098;6.414;2022-12-18T07:12:05;18.67;;;14.23;;
3052;SDS011;1536;51.098;6.414;2022-12-18T07:14:33;23.38;;;15.23;;
3052;SDS011;1536;51.098;6.414;2022-12-18T07:16:59;25.10;;;16.60;;
3052;SDS011;1536;51.098;6.414;2022-12-18T07:19:26;23.52;;;15.57;;
3052;SDS011;1536;51.098;6.414;2022-12-18T07:21:53;26.38;;;17.13;;
3052;SDS011;1536;51.098;6.414;2022-12-18T07:24:21;21.50;;;14.80;;
3052;SDS011;1536;51.098;6.414;2022-12-18T07:26:48;25.40;;;16.65;;
3052;SDS011;1536;51.098;6.414;2022-12-18T07:29:14;21.65;;;16.00;;
3052;SDS011;1536;51.098;6.414;2022-12-18T07:31:41;20.08;;;15.70;;
3052;SDS011;1536;51.098;6.414;2022-12-18T07:34:09;23.10;;;14.25;;
3052;SDS011;1536;51.098;6.414;2022-12-18T07:36:36;23.60;;;17.45;;
3052;SDS011;1536;51.098;6.414;2022-12-18T07:39:03;18.50;;;14.30;;
3052;SDS011;1536;51.098;6.414;2022-12-18T07:41:31;26.60;;;15.50;;
3052;SDS011;1536;51.098;6.414;2022-12-18T07:43:58;21.45;;;14.75;;
3052;SDS011;1536;51.098;6.414;2022-12-18T07:46:25;24.35;;;16.52;;
3052;SDS011;1536;51.098;6.414;2022-12-18T07:48:51;31.35;;;17.42;;
3052;SDS011;1536;51.098;6.414;2022-12-18T07:51:18;21.80;;;16.10;;
3052;SDS011;1536;51.098;6.414;2022-12-18T07:53:45;22.90;;;15.70;;
3052;SDS011;1536;51.098;6.414;2022-12-18T07:56:12;18.23;;;13.35;;
3052;SDS011;1536;51.098;6.414;2022-12-18T07:58:40;27.05;;;17.17;;
3052;SDS011;1536;51.098;6.414;2022-12-18T08:01:08;22.77;;;15.82;;
3052;SDS011;1536;51.098;6.414;2022-12-18T08:03:36;27.80;;;16.85;;
3052;SDS011;1536;51.098;6.414;2022-12-18T08:06:04;23.90;;;16.05;;
3052;SDS011;1536;51.098;6.414;2022-12-18T08:08:33;22.77;;;16.27;;
3052;SDS011;1536;51.098;6.414;2022-12-18T08:11:01;19.02;;;15.25;;
3052;SDS011;1536;51.098;6.414;2022-12-18T08:13:28;23.23;;;15.32;;
3052;SDS011;1536;51.098;6.414;2022-12-18T08:15:56;23.60;;;16.17;;
3052;SDS011;1536;51.098;6.414;2022-12-18T08:18:24;21.90;;;15.55;;
3052;SDS011;1536;51.098;6.414;2022-12-18T08:20:51;19.33;;;15.82;;
3052;SDS011;1536;51.098;6.414;2022-12-18T08:23:20;24.80;;;16.50;;
3052;SDS011;1536;51.098;6.414;2022-12-18T08:25:47;33.90;;;17.52;;
3052;SDS011;1536;51.098;6.414;2022-12-18T08:28:14;24.75;;;15.45;;
3052;SDS011;1536;51.098;6.414;2022-12-18T08:30:42;22.65;;;15.93;;
3052;SDS011;1536;51.098;6.414;2022-12-18T08:33:10;22.75;;;15.93;;
3052;SDS011;1536;51.098;6.414;2022-12-18T08:35:37;19.95;;;15.40;;
3052;SDS011;1536;51.098;6.414;2022-12-18T08:38:03;20.83;;;17.15;;
3052;SDS011;1536;51.098;6.414;2022-12-18T08:40:30;25.20;;;17.70;;
3052;SDS011;1536;51.098;6.414;2022-12-18T08:42:57;21.67;;;15.73;;
3052;SDS011;1536;51.098;6.414;2022-12-18T08:45:41;20.13;;;14.88;;
3052;SDS011;1536;51.098;6.414;2022-12-18T08:48:09;22.52;;;17.02;;
3052;SDS011;1536;51.098;6.414;2022-12-18T08:50:36;23.08;;;15.38;;
3052;SDS011;1536;51.098;6.414;2022-12-18T08:53:05;26.08;;;16.33;;
3052;SDS011;1536;51.098;6.414;2022-12-18T08:55:31;24.10;;;16.42;;
3052;SDS011;1536;51.098;6.414;2022-12-18T08:57:58;25.13;;;16.23;;
3052;SDS011;1536;51.098;6.414;2022-12-18T09:00:25;23.85;;;15.23;;
3052;SDS011;1536;51.098;6.414;2022-12-18T09:02:51;20.67;;;14.95;;
3052;SDS011;1536;51.098;6.414;2022-12-18T09:05:19;24.85;;;16.65;;
3052;SDS011;1536;51.098;6.414;2022-12-18T09:07:46;24.30;;;15.73;;
3052;SDS011;1536;51.098;6.414;2022-12-18T09:10:13;22.67;;;16.13;;
3052;SDS011;1536;51.098;6.414;2022-12-18T09:12:40;31.33;;;16.95;;
3052;SDS011;1536;51.098;6.414;2022-12-18T09:15:06;22.58;;;14.75;;
3052;SDS011;1536;51.098;6.414;2022-12-18T09:17:34;21.50;;;15.80;;
3052;SDS011;1536;51.098;6.414;2022-12-18T09:20:00;25.00;;;18.05;;
3052;SDS011;1536;51.098;6.414;2022-12-18T09:22:28;25.98;;;16.45;;
3052;SDS011;1536;51.098;6.414;2022-12-18T09:24:55;22.10;;;15.60;;
3052;SDS011;1536;51.098;6.414;2022-12-18T09:27:22;23.40;;;16.30;;
3052;SDS011;1536;51.098;6.414;2022-12-18T09:29:48;24.85;;;15.13;;
3052;SDS011;1536;51.098;6.414;2022-12-18T09:32:15;22.20;;;15.10;;
3052;SDS011;1536;51.098;6.414;2022-12-18T09:34:42;17.80;;;15.88;;
3052;SDS011;1536;51.098;6.414;2022-12-18T09:37:08;22.67;;;15.88;;
3052;SDS011;1536;51.098;6.414;2022-12-18T09:39:37;22.25;;;14.93;;
3052;SDS011;1536;51.098;6.414;2022-12-18T09:42:04;19.42;;;13.35;;
3052;SDS011;1536;51.098;6.414;2022-12-18T09:44:32;21.95;;;14.68;;
3052;SDS011;1536;51.098;6.414;2022-12-18T09:47:06;21.85;;;15.20;;
3052;SDS011;1536;51.098;6.414;2022-12-18T09:49:38;24.27;;;16.10;;
3052;SDS011;1536;51.098;6.414;2022-12-18T09:52:09;20.40;;;14.82;;
3052;SDS011;1536;51.098;6.414;2022-12-18T09:54:42;24.45;;;15.82;;
3052;SDS011;1536;51.098;6.414;2022-12-18T09:57:13;22.00;;;15.63;;
3052;SDS011;1536;51.098;6.414;2022-12-18T09:59:41;23.67;;;16.10;;
3052;SDS011;1536;51.098;6.414;2022-12-18T10:02:16;24.23;;;14.52;;
3052;SDS011;1536;51.098;6.414;2022-12-18T10:04:44;23.35;;;14.50;;
3052;SDS011;1536;51.098;6.414;2022-12-18T10:07:22;21.00;;;15.63;;
3052;SDS011;1536;51.098;6.414;2022-12-18T10:09:57;23.83;;;15.98;;
3052;SDS011;1536;51.098;6.414;2022-12-18T10:12:32;21.45;;;15.20;;
3052;SDS011;1536;51.098;6.414;2022-12-18T10:15:06;25.55;;;16.02;;
3052;SDS011;1536;51.098;6.414;2022-12-18T10:17:41;19.38;;;15.98;;
3052;SDS011;1536;51.098;6.414;2022-12-18T10:20:13;23.20;;;16.45;;
3052;SDS011;1536;51.098;6.414;2022-12-18T10:22:48;23.48;;;15.73;;
3052;SDS011;1536;51.098;6.414;2022-12-18T10:25:25;28.10;;;15.82;;
3052;SDS011;1536;51.098;6.414;2022-12-18T10:27:55;24.05;;;16.63;;
3052;SDS011;1536;51.098;6.414;2022-12-18T10:30:26;25.95;;;17.80;;
3052;SDS011;1536;51.098;6.414;2022-12-18T10:32:53;22.02;;;15.88;;
3052;SDS011;1536;51.098;6.414;2022-12-18T10:35:22;26.83;;;16.35;;
3052;SDS011;1536;51.098;6.414;2022-12-18T10:38:00;30.02;;;16.92;;
3052;SDS011;1536;51.098;6.414;2022-12-18T10:40:30;23.90;;;15.75;;
3052;SDS011;1536;51.098;6.414;2022-12-18T10:43:03;19.50;;;16.15;;
3052;SDS011;1536;51.098;6.414;2022-12-18T10:45:30;21.58;;;15.32;;
3052;SDS011;1536;51.098;6.414;2022-12-18T10:47:57;21.02;;;15.23;;
3052;SDS011;1536;51.098;6.414;2022-12-18T10:50:26;22.80;;;16.30;;
3052;SDS011;1536;51.098;6.414;2022-12-18T10:52:57;32.50;;;17.60;;
3052;SDS011;1536;51.098;6.414;2022-12-18T10:55:26;20.80;;;15.77;;
3052;SDS011;1536;51.098;6.414;2022-12-18T10:58:13;24.10;;;15.18;;
3052;SDS011;1536;51.098;6.414;2022-12-18T11:00:45;25.58;;;17.15;;
3052;SDS011;1536;51.098;6.414;2022-12-18T11:03:30;22.95;;;17.17;;
3052;SDS011;1536;51.098;6.414;2022-12-18T11:06:04;22.52;;;15.85;;
3052;SDS011;1536;51.098;6.414;2022-12-18T11:08:33;21.48;;;15.65;;
3052;SDS011;1536;51.098;6.414;2022-12-18T11:11:02;20.77;;;15.93;;
3052;SDS011;1536;51.098;6.414;2022-12-18T11:13:30;20.85;;;16.00;;
3052;SDS011;1536;51.098;6.414;2022-12-18T11:15:57;21.60;;;14.82;;
3052;SDS011;1536;51.098;6.414;2022-12-18T11:18:25;20.00;;;15.48;;
3052;SDS011;1536;51.098;6.414;2022-12-18T11:20:54;23.75;;;15.70;;
3052;SDS011;1536;51.098;6.414;2022-12-18T11:23:23;24.88;;;16.20;;
3052;SDS011;1536;51.098;6.414;2022-12-18T11:25:51;20.63;;;15.60;;
3052;SDS011;1536;51.098;6.414;2022-12-18T11:28:29;24.58;;;17.23;;
3052;SDS011;1536;51.098;6.414;2022-12-18T11:31:09;22.65;;;16.42;;
3052;SDS011;1536;51.098;6.414;2022-12-18T11:33:39;20.35;;;15.55;;
3052;SDS011;1536;51.098;6.414;2022-12-18T11:36:09;26.10;;;15.57;;
3052;SDS011;1536;51.098;6.414;2022-12-18T11:38:37;24.05;;;17.00;;
3052;SDS011;1536;51.098;6.414;2022-12-18T11:41:07;18.38;;;15.70;;
3052;SDS011;1536;51.098;6.414;2022-12-18T11:43:47;20.30;;;15.88;;
3052;SDS011;1536;51.098;6.414;2022-12-18T11:46:19;27.15;;;16.13;;
3052;SDS011;1536;51.098;6.414;2022-12-18T11:48:54;25.85;;;16.35;;
3052;SDS011;1536;51.098;6.414;2022-12-18T11:51:29;24.73;;;16.10;;
3052;SDS011;1536;51.098;6.414;2022-12-18T11:54:01;27.92;;;17.00;;
3052;SDS011;1536;51.098;6.414;2022-12-18T11:56:39;24.35;;;13.93;;
3052;SDS011;1536;51.098;6.414;2022-12-18T11:59:14;32.00;;;17.08;;
3052;SDS011;1536;51.098;6.414;2022-12-18T12:01:48;22.33;;;15.43;;
3052;SDS011;1536;51.098;6.414;2022-12-18T12:07:31;25.80;;;15.07;;
3052;SDS011;1536;51.098;6.414;2022-12-18T12:10:09;30.67;;;16.08;;
3052;SDS011;1536;51.098;6.414;2022-12-18T12:12:53;26.13;;;16.63;;
3052;SDS011;1536;51.098;6.414;2022-12-18T12:15:31;22.52;;;16.00;;
3052;SDS011;1536;51.098;6.414;2022-12-18T12:18:07;29.13;;;15.82;;
3052;SDS011;1536;51.098;6.414;2022-12-18T12:20:49;21.30;;;15.82;;
3052;SDS011;1536;51.098;6.414;2022-12-18T12:23:22;26.48;;;16.13;;
3052;SDS011;1536;51.098;6.414;2022-12-18T12:26:01;22.80;;;15.93;;
3052;SDS011;1536;51.098;6.414;2022-12-18T12:28:36;27.27;;;16.02;;
3052;SDS011;1536;51.098;6.414;2022-12-18T12:31:24;29.17;;;16.85;;
3052;SDS011;1536;51.098;6.414;2022-12-18T12:34:00;26.52;;;15.13;;
3052;SDS011;1536;51.098;6.414;2022-12-18T12:36:39;25.70;;;15.90;;
3052;SDS011;1536;51.098;6.414;2022-12-18T12:39:17;27.30;;;16.80;;
3052;SDS011;1536;51.098;6.414;2022-12-18T12:41:47;35.03;;;17.95;;
3052;SDS011;1536;51.098;6.414;2022-12-18T12:44:32;24.58;;;16.13;;
3052;SDS011;1536;51.098;6.414;2022-12-18T12:47:07;24.70;;;16.35;;
3052;SDS011;1536;51.098;6.414;2022-12-18T12:49:40;22.83;;;15.57;;
3052;SDS011;1536;51.098;6.414;2022-12-18T12:52:13;23.98;;;17.55;;
3052;SDS011;1536;51.098;6.414;2022-12-18T12:54:44;26.77;;;15.95;;
3052;SDS011;1536;51.098;6.414;2022-12-18T12:57:13;25.23;;;17.10;;
3052;SDS011;1536;51.098;6.414;2022-12-18T12:59:45;28.70;;;16.45;;
3052;SDS011;1536;51.098;6.414;2022-12-18T13:02:20;33.90;;;16.55;;
3052;SDS011;1536;51.098;6.414;2022-12-18T13:04:56;23.27;;;16.27;;
3052;SDS011;1536;51.098;6.414;2022-12-18T13:07:27;40.08;;;16.40;;
3052;SDS011;1536;51.098;6.414;2022-12-18T13:10:12;25.70;;;15.57;;
3052;SDS011;1536;51.098;6.414;2022-12-18T13:12:56;31.23;;;17.42;;
3052;SDS011;1536;51.098;6.414;2022-12-18T13:15:32;33.28;;;16.20;;
3052;SDS011;1536;51.098;6.414;2022-12-18T13:18:04;51.88;;;17.50;;
3052;SDS011;1536;51.098;6.414;2022-12-18T13:20:38;29.17;;;15.50;;
3052;SDS011;1536;51.098;6.414;2022-12-18T13:23:20;29.88;;;17.73;;
3052;SDS011;1536;51.098;6.414;2022-12-18T13:25:53;31.85;;;16.60;;
3052;SDS011;1536;51.098;6.414;2022-12-18T13:28:21;46.35;;;19.35;;
3052;SDS011;1536;51.098;6.414;2022-12-18T13:31:10;32.10;;;16.77;;
3052;SDS011;1536;51.098;6.414;2022-12-18T13:33:39;41.42;;;18.80;;
3052;SDS011;1536;51.098;6.414;2022-12-18T13:36:10;34.13;;;18.42;;
3052;SDS011;1536;51.098;6.414;2022-12-18T13:38:40;40.88;;;17.40;;
3052;SDS011;1536;51.098;6.414;2022-12-18T13:41:21;36.08;;;18.10;;
3052;SDS011;1536;51.098;6.414;2022-12-18T13:43:49;34.83;;;18.30;;
3052;SDS011;1536;51.098;6.414;2022-12-18T13:46:19;29.55;;;17.15;;
3052;SDS011;1536;51.098;6.414;2022-12-18T13:48:52;27.40;;;16.60;;
3052;SDS011;1536;51.098;6.414;2022-12-18T13:51:23;31.50;;;17.85;;
3052;SDS011;1536;51.098;6.414;2022-12-18T13:53:51;30.85;;;18.20;;
3052;SDS011;1536;51.098;6.414;2022-12-18T13:56:24;26.67;;;17.23;;
3052;SDS011;1536;51.098;6.414;2022-12-18T14:01:43;27.10;;;17.50;;
3052;SDS011;1536;51.098;6.414;2022-12-18T14:04:17;33.50;;;18.33;;
3052;SDS011;1536;51.098;6.414;2022-12-18T14:06:47;27.95;;;19.00;;
3052;SDS011;1536;51.098;6.414;2022-12-18T14:09:16;26.85;;;17.50;;
3052;SDS011;1536;51.098;6.414;2022-12-18T14:11:47;36.65;;;18.05;;
3052;SDS011;1536;51.098;6.414;2022-12-18T14:14:15;34.15;;;19.10;;
3052;SDS011;1536;51.098;6.414;2022-12-18T14:16:42;28.40;;;17.67;;
3052;SDS011;1536;51.098;6.414;2022-12-18T14:19:11;34.47;;;18.17;;
3052;SDS011;1536;51.098;6.414;2022-12-18T14:21:44;26.35;;;17.80;;
3052;SDS011;1536;51.098;6.414;2022-12-18T14:24:13;28.23;;;18.15;;
3052;SDS011;1536;51.098;6.414;2022-12-18T14:26:42;30.00;;;17.20;;
3052;SDS011;1536;51.098;6.414;2022-12-18T14:29:19;29.27;;;17.27;;
3052;SDS011;1536;51.098;6.414;2022-12-18T14:34:32;33.28;;;17.73;;
3052;SDS011;1536;51.098;6.414;2022-12-18T14:36:59;30.38;;;16.42;;
3052;SDS011;1536;51.098;6.414;2022-12-18T14:39:25;26.85;;;17.90;;
3052;SDS011;1536;51.098;6.414;2022-12-18T14:41:52;31.98;;;18.15;;
3052;SDS011;1536;51.098;6.414;2022-12-18T14:44:19;31.80;;;18.90;;
3052;SDS011;1536;51.098;6.414;2022-12-18T14:46:47;28.92;;;18.75;;
3052;SDS011;1536;51.098;6.414;2022-12-18T14:49:18;33.75;;;17.55;;
3052;SDS011;1536;51.098;6.414;2022-12-18T14:51:50;31.45;;;18.15;;
3052;SDS011;1536;51.098;6.414;2022-12-18T14:54:19;28.13;;;18.63;;
3052;SDS011;1536;51.098;6.414;2022-12-18T14:56:48;29.35;;;17.15;;
3052;SDS011;1536;51.098;6.414;2022-12-18T14:59:18;31.92;;;18.92;;
3052;SDS011;1536;51.098;6.414;2022-12-18T15:01:48;32.42;;;18.85;;
3052;SDS011;1536;51.098;6.414;2022-12-18T15:04:24;28.17;;;18.63;;
3052;SDS011;1536;51.098;6.414;2022-12-18T15:07:03;40.83;;;19.52;;
3052;SDS011;1536;51.098;6.414;2022-12-18T15:09:33;30.83;;;18.20;;
3052;SDS011;1536;51.098;6.414;2022-12-18T15:12:00;29.27;;;17.63;;
3052;SDS011;1536;51.098;6.414;2022-12-18T15:14:32;25.23;;;17.77;;